Time;durP1;ratioP1;P1;durP2;ratioP2;P2;SDS_P1;SDS_P2;PMS_P1;PMS_P2;Temp;Humidity;BMP_temperature;BMP_pressure;BME280_temperature;BME280_humidity;BME280_pressure;Samples;Min_cycle;Max_cycle;Signal;HPM_P1;HPM_P2
2022/07/15 00:01:03;;;;;;;2.53;1.00;;;14.50;31.60;;;;;;8340804;28;20287;-66
2022/07/15 00:05:06;;;;;;;1.77;0.60;;;14.40;32.60;;;;;;8309431;28;20252;-60
2022/07/15 00:09:07;;;;;;;2.47;0.80;;;14.20;52.00;;;;;;8308768;28;20265;-63
2022/07/15 00:13:08;;;;;;;1.17;0.57;;;14.10;84.30;;;;;;8300542;28;20191;-62
2022/07/15 00:17:08;;;;;;;2.60;0.67;;;13.90;94.20;;;;;;8335926;28;20210;-61
2022/07/15 00:21:09;;;;;;;0.67;0.50;;;13.70;99.90;;;;;;8304728;28;20190;-61
2022/07/15 00:25:10;;;;;;;4.23;0.80;;;13.60;99.90;;;;;;8302543;28;20245;-62
2022/07/15 00:29:11;;;;;;;3.60;0.70;;;13.50;99.90;;;;;;8306095;28;20202;-63
2022/07/15 00:33:12;;;;;;;3.73;0.87;;;13.50;99.90;;;;;;8302452;28;20186;-63
2022/07/15 00:37:14;;;;;;;1.63;0.80;;;13.50;99.90;;;;;;8302194;28;20285;-65
2022/07/15 00:41:14;;;;;;;2.50;0.90;;;13.40;99.90;;;;;;8338616;28;20190;-60
2022/07/15 00:45:27;;;;;;;4.50;1.00;;;13.40;99.90;;;;;;8340654;28;20258;-63
2022/07/15 00:49:28;;;;;;;2.90;0.90;;;13.40;99.90;;;;;;8331054;28;20201;-62
2022/07/15 00:53:32;;;;;;;2.77;0.77;;;13.40;99.90;;;;;;8302050;28;20206;-60
2022/07/15 00:57:36;;;;;;;4.50;0.90;;;13.40;99.90;;;;;;8344241;28;20213;-61
2022/07/15 01:01:37;;;;;;;2.03;0.90;;;13.30;99.90;;;;;;8308854;28;20216;-62
2022/07/15 01:06:02;;;;;;;3.03;1.67;;;13.20;99.90;;;;;;8340553;28;20194;-61
2022/07/15 01:10:04;;;;;;;2.97;0.90;;;13.20;99.90;;;;;;8313223;28;20289;-60
2022/07/15 01:14:05;;;;;;;1.27;0.60;;;13.20;99.90;;;;;;8307540;28;20194;-61
2022/07/15 01:18:06;;;;;;;2.20;0.90;;;13.30;99.90;;;;;;8323134;28;20221;-61
2022/07/15 01:22:07;;;;;;;3.20;0.80;;;13.20;99.90;;;;;;8320411;28;20221;-61
2022/07/15 01:26:11;;;;;;;4.23;0.93;;;13.20;99.90;;;;;;8316600;28;20189;-62
2022/07/15 01:30:12;;;;;;;2.37;0.80;;;13.30;99.90;;;;;;8344188;28;20186;-61
2022/07/15 01:34:12;;;;;;;1.90;0.80;;;13.40;99.90;;;;;;8312797;28;20197;-63
2022/07/15 01:38:15;;;;;;;3.37;0.90;;;13.30;99.90;;;;;;8338922;28;20233;-63
2022/07/15 01:42:16;;;;;;;2.30;0.80;;;13.30;99.90;;;;;;8321638;28;20234;-61
2022/07/15 01:46:16;;;;;;;4.03;0.77;;;13.30;99.90;;;;;;8304013;28;20193;-61
2022/07/15 01:50:17;;;;;;;1.57;0.67;;;13.20;99.90;;;;;;8341573;28;20210;-61
2022/07/15 01:54:18;;;;;;;2.53;1.07;;;13.10;99.90;;;;;;8335064;28;20189;-61
2022/07/15 01:58:19;;;;;;;2.87;1.00;;;13.10;99.90;;;;;;8307695;28;20220;-64
2022/07/15 02:02:20;;;;;;;1.50;0.93;;;12.90;99.90;;;;;;8337875;28;20185;-62
2022/07/15 02:06:22;;;;;;;5.93;0.80;;;12.90;99.90;;;;;;8303257;28;20222;-63
2022/07/15 02:10:23;;;;;;;1.67;0.67;;;12.80;99.90;;;;;;8305085;28;20237;-62
2022/07/15 02:14:24;;;;;;;2.03;1.00;;;12.70;99.90;;;;;;8309315;28;20189;-62
2022/07/15 02:18:25;;;;;;;2.10;0.87;;;12.70;99.90;;;;;;8334500;28;20290;-62
2022/07/15 02:22:26;;;;;;;3.40;0.83;;;12.60;99.90;;;;;;8309490;28;20180;-62
2022/07/15 02:26:27;;;;;;;1.77;0.77;;;12.50;99.90;;;;;;8310493;28;20186;-60
2022/07/15 02:30:31;;;;;;;1.43;0.90;;;12.40;99.90;;;;;;8306739;28;20289;-62
2022/07/15 02:34:32;;;;;;;7.63;1.43;;;12.30;99.90;;;;;;8321633;28;20189;-61
2022/07/15 02:38:33;;;;;;;3.43;1.07;;;12.30;99.90;;;;;;8308404;28;20247;-62
2022/07/15 02:42:34;;;;;;;3.40;1.20;;;12.30;99.90;;;;;;8341190;28;20176;-61
2022/07/15 02:46:35;;;;;;;4.13;1.20;;;12.20;99.90;;;;;;8306966;28;20199;-62
2022/07/15 02:50:36;;;;;;;3.13;0.77;;;12.10;1.00;;;;;;8308177;28;20260;-63
2022/07/15 02:54:37;;;;;;;2.50;0.80;;;12.10;1.00;;;;;;8306263;28;20270;-65
2022/07/15 02:58:38;;;;;;;1.60;0.90;;;12.10;1.00;;;;;;8311205;28;20213;-62
2022/07/15 03:02:39;;;;;;;2.67;1.00;;;12.10;1.00;;;;;;8303139;28;20210;-61
2022/07/15 03:06:40;;;;;;;3.73;0.90;;;12.10;1.00;;;;;;8321646;28;20230;-66
2022/07/15 03:10:41;;;;;;;3.80;0.97;;;12.00;1.00;;;;;;8307275;28;20200;-62
2022/07/15 03:14:42;;;;;;;5.80;1.03;;;12.00;1.00;;;;;;8338930;28;20186;-63
2022/07/15 03:18:43;;;;;;;1.80;0.80;;;12.00;1.00;;;;;;8340340;28;20215;-63
2022/07/15 03:22:44;;;;;;;2.73;1.07;;;12.00;1.00;;;;;;8313379;28;20191;-62
2022/07/15 03:26:44;;;;;;;2.57;1.00;;;12.30;1.00;;;;;;8316401;28;20234;-63
2022/07/15 03:30:46;;;;;;;3.07;0.70;;;12.90;99.90;;;;;;8310013;28;20202;-61
2022/07/15 03:34:48;;;;;;;2.47;0.83;;;13.50;99.90;;;;;;8319213;28;20265;-62
2022/07/15 03:38:51;;;;;;;3.03;0.70;;;14.00;99.90;;;;;;8339484;28;20622;-65
2022/07/15 03:42:52;;;;;;;2.70;0.70;;;14.50;99.90;;;;;;8345268;28;20217;-63
2022/07/15 03:46:53;;;;;;;2.13;1.00;;;14.90;99.90;;;;;;8305855;28;20191;-62
2022/07/15 03:50:54;;;;;;;3.03;0.93;;;15.20;99.90;;;;;;8306902;28;20210;-64
2022/07/15 03:54:55;;;;;;;2.33;0.57;;;15.50;68.50;;;;;;8316134;28;20335;-61
2022/07/15 03:58:56;;;;;;;1.97;0.50;;;15.80;42.60;;;;;;8308097;28;20214;-62
2022/07/15 04:02:58;;;;;;;1.40;0.73;;;16.10;23.70;;;;;;8309885;28;20190;-64
2022/07/15 04:06:58;;;;;;;2.60;1.10;;;16.30;11.80;;;;;;8327260;28;20199;-62
2022/07/15 04:10:59;;;;;;;1.97;0.77;;;16.50;4.20;;;;;;8309870;28;20276;-63
2022/07/15 04:15:00;;;;;;;0.70;0.60;;;16.60;3.30;;;;;;8346102;28;20201;-63
2022/07/15 04:19:01;;;;;;;3.07;0.50;;;16.80;1.00;;;;;;8311200;28;20241;-63
2022/07/15 04:23:02;;;;;;;1.77;0.57;;;17.00;1.00;;;;;;8340717;28;20179;-63
2022/07/15 04:27:03;;;;;;;4.13;0.57;;;17.40;1.00;;;;;;8319859;28;20182;-61
2022/07/15 04:31:03;;;;;;;1.63;0.60;;;17.40;1.00;;;;;;8337160;28;20194;-61
2022/07/15 04:35:05;;;;;;;2.00;0.73;;;17.60;1.00;;;;;;8337085;28;20182;-61
2022/07/15 04:39:06;;;;;;;2.03;0.50;;;17.60;1.00;;;;;;8309165;28;20229;-63
2022/07/15 04:43:07;;;;;;;1.77;0.60;;;17.60;1.00;;;;;;8338103;28;20183;-62
2022/07/15 04:47:08;;;;;;;1.13;0.50;;;17.60;1.00;;;;;;8305606;28;20265;-63
2022/07/15 04:51:08;;;;;;;1.47;0.40;;;17.60;1.00;;;;;;8333771;28;21189;-63
2022/07/15 04:55:09;;;;;;;1.30;0.47;;;17.40;1.00;;;;;;8309988;28;20187;-60
2022/07/15 04:59:10;;;;;;;3.60;1.00;;;17.00;2.70;;;;;;8336954;28;20216;-64
2022/07/15 05:03:11;;;;;;;2.73;0.77;;;17.00;8.60;;;;;;8330906;28;20927;-61
2022/07/15 05:07:12;;;;;;;4.20;0.80;;;16.90;34.20;;;;;;8308490;28;20200;-60
2022/07/15 05:11:13;;;;;;;1.93;0.87;;;17.00;30.30;;;;;;8307590;28;20306;-63
2022/07/15 05:15:14;;;;;;;2.47;0.90;;;16.90;29.00;;;;;;8333715;28;20191;-61
2022/07/15 05:19:15;;;;;;;2.60;0.80;;;16.40;91.80;;;;;;8335594;28;20219;-61
2022/07/15 05:23:17;;;;;;;1.37;0.80;;;15.90;99.90;;;;;;8309220;28;20194;-62
2022/07/15 05:27:17;;;;;;;3.20;0.90;;;15.60;99.90;;;;;;8296547;28;20262;-61
2022/07/15 05:31:19;;;;;;;3.13;0.90;;;15.40;99.90;;;;;;8301265;28;20194;-63
2022/07/15 05:35:21;;;;;;;3.13;1.00;;;15.40;99.90;;;;;;8320505;28;20252;-62
2022/07/15 05:39:22;;;;;;;2.13;0.90;;;15.30;99.90;;;;;;8336516;28;20497;-62
2022/07/15 05:43:24;;;;;;;3.77;1.10;;;15.20;99.90;;;;;;8300201;28;20191;-66
2022/07/15 05:47:24;;;;;;;3.03;0.97;;;15.20;99.90;;;;;;8299952;28;20187;-61
2022/07/15 05:51:25;;;;;;;2.60;0.87;;;15.10;99.90;;;;;;8337538;28;20215;-63
2022/07/15 05:55:26;;;;;;;4.80;0.93;;;15.20;99.90;;;;;;8311275;28;20221;-64
2022/07/15 05:59:27;;;;;;;2.80;1.10;;;15.10;99.90;;;;;;8340928;28;20242;-62
2022/07/15 06:03:28;;;;;;;2.90;1.07;;;15.00;99.90;;;;;;8308036;28;20274;-62
2022/07/15 06:07:29;;;;;;;2.50;0.80;;;15.00;99.90;;;;;;8332034;28;20210;-63
2022/07/15 06:11:30;;;;;;;3.17;0.73;;;15.10;99.90;;;;;;8307032;28;20191;-61
2022/07/15 06:15:30;;;;;;;5.30;1.70;;;15.40;99.90;;;;;;8304318;28;20209;-62
2022/07/15 06:19:31;;;;;;;3.83;1.40;;;15.60;99.90;;;;;;8305820;28;20206;-66
2022/07/15 06:23:32;;;;;;;7.70;1.63;;;15.60;99.90;;;;;;8332433;28;20188;-67
2022/07/15 06:27:34;;;;;;;2.30;1.10;;;15.50;99.90;;;;;;8328296;28;20620;-62
2022/07/15 06:31:34;;;;;;;1.93;1.00;;;15.50;99.90;;;;;;8331373;28;20183;-65
2022/07/15 06:35:36;;;;;;;1.03;0.70;;;15.70;65.20;;;;;;8299699;28;20228;-62
2022/07/15 06:39:37;;;;;;;2.17;0.90;;;15.80;40.50;;;;;;8313453;28;20244;-63
2022/07/15 06:43:38;;;;;;;4.60;0.83;;;16.00;69.00;;;;;;8314753;28;20216;-63
2022/07/15 06:47:42;;;;;;;4.20;0.60;;;15.90;11.70;;;;;;8309180;28;20215;-64
2022/07/15 06:51:43;;;;;;;3.43;0.50;;;16.00;1.00;;;;;;8304325;28;20203;-63
2022/07/15 06:55:44;;;;;;;3.03;0.83;;;16.10;1.00;;;;;;8313421;28;20252;-64
2022/07/15 06:59:44;;;;;;;2.90;0.50;;;16.20;1.00;;;;;;8316179;28;20179;-63
2022/07/15 07:03:45;;;;;;;2.93;0.60;;;16.30;1.00;;;;;;8338737;28;20392;-61
2022/07/15 07:07:46;;;;;;;2.67;0.70;;;16.60;1.00;;;;;;8340882;28;20214;-63
2022/07/15 07:11:47;;;;;;;2.70;0.83;;;16.80;1.00;;;;;;8306313;28;20182;-63
2022/07/15 07:15:48;;;;;;;3.23;1.10;;;17.00;1.00;;;;;;8335218;28;20198;-65
2022/07/15 07:19:49;;;;;;;1.23;0.63;;;17.00;1.00;;;;;;8337547;28;20183;-64
2022/07/15 07:23:50;;;;;;;3.80;0.83;;;16.80;1.00;;;;;;8340849;28;20182;-65
2022/07/15 07:27:51;;;;;;;1.10;0.37;;;16.60;1.00;;;;;;8313572;28;20201;-65
2022/07/15 07:31:52;;;;;;;2.77;0.77;;;16.70;1.00;;;;;;8307645;28;20229;-66
2022/07/15 07:35:53;;;;;;;2.40;0.60;;;16.50;1.00;;;;;;8318421;28;20356;-67
2022/07/15 07:39:54;;;;;;;2.40;0.70;;;16.50;1.00;;;;;;8326672;28;20490;-68
2022/07/15 07:43:54;;;;;;;2.30;0.57;;;16.80;1.00;;;;;;8305423;28;20280;-66
2022/07/15 07:47:56;;;;;;;1.87;0.60;;;16.90;1.00;;;;;;8335633;28;20191;-64
2022/07/15 07:51:57;;;;;;;2.13;0.33;;;17.20;1.00;;;;;;8314908;28;20225;-67
2022/07/15 07:55:58;;;;;;;1.67;0.60;;;17.60;1.00;;;;;;8343409;28;20275;-67
2022/07/15 07:59:59;;;;;;;3.30;0.47;;;17.40;1.00;;;;;;8339913;28;20205;-67
2022/07/15 08:04:00;;;;;;;4.70;0.77;;;17.40;1.00;;;;;;8333509;28;20214;-66
2022/07/15 08:08:10;;;;;;;1.47;0.63;;;17.50;1.00;;;;;;8315926;28;20205;-65
2022/07/15 08:12:11;;;;;;;1.83;0.50;;;17.10;1.00;;;;;;8340248;28;20221;-65
2022/07/15 08:16:12;;;;;;;2.17;0.50;;;16.80;1.00;;;;;;8315107;28;20202;-68
2022/07/15 08:20:13;;;;;;;3.47;1.00;;;16.90;1.00;;;;;;8309968;28;20218;-66
2022/07/15 08:24:14;;;;;;;2.00;0.60;;;17.20;1.00;;;;;;8313406;28;20637;-66
2022/07/15 08:28:15;;;;;;;3.03;0.63;;;17.00;1.00;;;;;;8317601;28;20197;-65
2022/07/15 08:32:16;;;;;;;1.37;0.70;;;17.10;1.00;;;;;;8317603;28;20222;-65
2022/07/15 08:36:17;;;;;;;1.53;0.50;;;17.00;1.00;;;;;;8316457;28;20223;-66
2022/07/15 08:40:17;;;;;;;2.43;0.70;;;17.20;1.00;;;;;;8309068;28;20277;-66
2022/07/15 08:44:18;;;;;;;3.47;0.80;;;17.60;1.00;;;;;;8339049;28;20197;-65
2022/07/15 08:48:23;;;;;;;3.80;1.00;;;17.60;1.00;;;;;;8339487;28;20201;-65
2022/07/15 08:52:25;;;;;;;4.77;0.67;;;17.60;1.00;;;;;;8308221;28;20404;-64
2022/07/15 08:56:26;;;;;;;1.20;0.50;;;17.40;1.00;;;;;;8339576;28;20229;-65
2022/07/15 09:00:30;;;;;;;4.40;0.80;;;17.40;1.00;;;;;;8315778;28;20190;-66
2022/07/15 09:04:31;;;;;;;4.00;0.90;;;17.50;1.00;;;;;;8344642;28;20193;-67
2022/07/15 09:08:34;;;;;;;2.33;0.60;;;17.50;1.00;;;;;;8341218;28;20202;-66
2022/07/15 09:12:42;;;;;;;2.87;0.50;;;17.60;1.00;;;;;;8312609;28;20191;-66
2022/07/15 09:16:42;;;;;;;2.40;0.43;;;17.90;1.00;;;;;;8317851;28;20211;-67
2022/07/15 09:20:44;;;;;;;2.93;0.77;;;17.80;1.00;;;;;;8315468;28;20190;-67
2022/07/15 09:24:45;;;;;;;5.30;0.70;;;18.00;1.00;;;;;;8323148;28;20195;-66
2022/07/15 09:28:46;;;;;;;3.50;0.53;;;18.40;1.00;;;;;;8316703;28;20206;-65
2022/07/15 09:37:06;;;;;;;4.13;0.60;;;18.60;1.00;;;;;;8311609;28;20474;-66
2022/07/15 09:41:14;;;;;;;1.53;0.50;;;18.10;1.00;;;;;;8344738;28;20186;-66
2022/07/15 09:45:21;;;;;;;1.93;0.50;;;18.00;1.00;;;;;;8309797;28;20186;-66
2022/07/15 09:49:25;;;;;;;1.50;0.50;;;18.20;1.00;;;;;;8312453;28;20316;-67
2022/07/15 09:53:25;;;;;;;2.60;0.50;;;18.30;1.00;;;;;;8310240;28;20236;-64
2022/07/15 09:57:26;;;;;;;2.73;0.70;;;18.30;1.00;;;;;;8342132;28;20214;-67
2022/07/15 10:01:28;;;;;;;2.17;0.50;;;18.50;1.00;;;;;;8304983;28;20190;-66
2022/07/15 10:05:30;;;;;;;2.00;0.60;;;18.40;1.00;;;;;;8300676;28;20250;-65
2022/07/15 10:09:33;;;;;;;2.33;0.40;;;18.40;1.00;;;;;;8312540;28;20554;-65
2022/07/15 10:13:39;;;;;;;4.37;0.80;;;18.50;1.00;;;;;;8341571;28;20182;-67
2022/07/15 10:17:43;;;;;;;0.80;0.43;;;18.70;1.00;;;;;;8341475;28;20321;-66
2022/07/15 10:21:47;;;;;;;2.03;0.50;;;19.50;1.00;;;;;;8313113;28;20183;-64
2022/07/15 10:26:20;;;;;;;1.33;0.50;;;20.00;1.00;;;;;;8308718;28;20179;-67
2022/07/15 10:30:23;;;;;;;3.17;0.80;;;19.70;1.00;;;;;;8311455;28;20220;-64
2022/07/15 10:34:30;;;;;;;3.40;0.53;;;18.90;1.00;;;;;;8342334;28;20194;-66
2022/07/15 10:38:36;;;;;;;3.80;0.60;;;18.80;1.00;;;;;;8342487;28;20218;-68
2022/07/15 10:43:10;;;;;;;2.57;0.60;;;18.80;1.00;;;;;;8334655;28;20256;-65
2022/07/15 10:47:13;;;;;;;1.17;0.50;;;18.90;1.00;;;;;;8307890;28;20199;-66
2022/07/15 10:51:37;;;;;;;1.93;0.40;;;19.60;1.00;;;;;;8339501;28;20292;-67
2022/07/15 10:55:38;;;;;;;3.93;0.33;;;19.80;1.00;;;;;;8308029;28;20194;-66
2022/07/15 10:59:47;;;;;;;1.33;0.40;;;19.70;1.00;;;;;;8328005;28;20221;-66
2022/07/15 11:04:21;;;;;;;4.13;0.80;;;19.20;1.00;;;;;;8325366;28;20205;-66
2022/07/15 11:08:31;;;;;;;2.77;0.90;;;18.90;1.00;;;;;;8320320;28;20214;-65
2022/07/15 11:12:32;;;;;;;1.30;0.40;;;19.00;1.00;;;;;;8312464;28;20194;-66
2022/07/15 11:16:33;;;;;;;2.40;0.70;;;19.20;1.00;;;;;;8316636;28;20210;-71
2022/07/15 11:20:36;;;;;;;3.10;0.60;;;19.00;1.00;;;;;;8307568;28;20187;-68
2022/07/15 11:24:37;;;;;;;2.93;0.60;;;19.60;1.00;;;;;;8338903;28;20210;-63
2022/07/15 11:28:38;;;;;;;1.90;0.50;;;20.00;1.00;;;;;;8347511;28;20194;-66
2022/07/15 11:32:38;;;;;;;0.97;0.50;;;19.80;1.00;;;;;;8311574;28;20195;-64
2022/07/15 11:36:39;;;;;;;3.10;0.70;;;19.70;1.00;;;;;;8311703;28;20210;-65
2022/07/15 11:45:36;;;;;;;3.27;0.70;;;19.80;1.00;;;;;;8304612;28;20283;-70
2022/07/15 11:49:39;;;;;;;4.83;0.60;;;20.40;1.00;;;;;;8319383;28;20254;-67
2022/07/15 11:53:47;;;;;;;2.57;0.50;;;20.50;1.00;;;;;;8304982;28;20245;-66
2022/07/15 11:57:49;;;;;;;1.83;0.60;;;20.80;1.00;;;;;;8340423;28;20236;-67
2022/07/15 12:02:11;;;;;;;2.60;0.70;;;20.80;1.00;;;;;;8327702;28;20601;-70
2022/07/15 12:06:30;;;;;;;4.93;1.10;;;20.30;1.00;;;;;;8266651;28;1244261;-65
2022/07/15 12:10:40;;;;;;;1.77;0.60;;;20.20;1.00;;;;;;8307484;28;20186;-68
2022/07/15 12:14:42;;;;;;;4.50;0.77;;;19.90;1.00;;;;;;8310936;28;20217;-65
2022/07/15 12:18:43;;;;;;;3.73;0.70;;;20.30;1.00;;;;;;8310904;28;20214;-67
2022/07/15 12:23:08;;;;;;;2.77;0.80;;;20.40;1.00;;;;;;8320308;28;20187;-67
2022/07/15 12:27:09;;;;;;;3.57;0.60;;;20.70;1.00;;;;;;8315266;28;20277;-67
2022/07/15 12:31:10;;;;;;;2.10;0.53;;;20.10;1.00;;;;;;8337793;28;20194;-67
2022/07/15 12:35:11;;;;;;;1.53;0.43;;;20.00;1.00;;;;;;8311848;28;20253;-66
2022/07/15 12:39:18;;;;;;;1.93;0.50;;;19.80;1.00;;;;;;8328636;28;20217;-67
2022/07/15 12:43:18;;;;;;;4.30;0.80;;;19.60;1.00;;;;;;8335253;28;20257;-67
2022/07/15 12:47:19;;;;;;;2.43;1.10;;;19.80;1.00;;;;;;8308574;28;20202;-67
2022/07/15 12:51:25;;;;;;;3.07;0.53;;;19.70;1.00;;;;;;8308982;28;20226;-67
2022/07/15 12:55:31;;;;;;;3.10;0.70;;;19.90;1.00;;;;;;8303915;28;20229;-68
2022/07/15 12:59:53;;;;;;;3.57;0.60;;;20.10;1.00;;;;;;8306776;28;20223;-66
2022/07/15 13:03:54;;;;;;;1.33;0.50;;;20.10;1.00;;;;;;8336075;28;20185;-70
2022/07/15 13:07:54;;;;;;;2.73;0.60;;;20.20;1.00;;;;;;8301826;28;20237;-68
2022/07/15 13:12:00;;;;;;;4.20;0.87;;;20.20;1.00;;;;;;8306894;28;20237;-65
2022/07/15 13:16:03;;;;;;;3.73;0.70;;;20.10;1.00;;;;;;8340229;28;20194;-66
2022/07/15 13:20:07;;;;;;;2.50;0.73;;;20.30;1.00;;;;;;8340652;28;20286;-68
2022/07/15 13:24:08;;;;;;;2.53;0.50;;;20.20;1.00;;;;;;8309338;28;20427;-65
2022/07/15 13:28:10;;;;;;;1.97;0.60;;;20.10;1.00;;;;;;8308199;28;20206;-66
2022/07/15 13:32:11;;;;;;;1.67;0.50;;;20.20;1.00;;;;;;8337940;28;20252;-66
2022/07/15 13:36:11;;;;;;;1.93;0.90;;;20.70;1.00;;;;;;8304768;28;20321;-67
2022/07/15 13:40:13;;;;;;;4.90;0.60;;;20.80;1.00;;;;;;8303582;28;20271;-70
2022/07/15 13:44:14;;;;;;;2.13;0.50;;;20.50;1.00;;;;;;8327601;28;20183;-71
2022/07/15 13:48:15;;;;;;;2.77;0.70;;;20.20;1.00;;;;;;8307549;28;20203;-66
2022/07/15 13:52:15;;;;;;;1.90;0.57;;;20.10;1.00;;;;;;8334869;28;20214;-67
2022/07/15 13:56:16;;;;;;;4.00;0.80;;;20.30;1.00;;;;;;8310579;28;20221;-66
2022/07/15 14:00:22;;;;;;;2.53;0.80;;;20.60;1.00;;;;;;8301254;28;20190;-65
2022/07/15 14:04:23;;;;;;;3.07;0.73;;;20.90;1.00;;;;;;8305232;28;20193;-67
2022/07/15 14:08:24;;;;;;;2.27;0.50;;;20.50;1.00;;;;;;8339558;28;20198;-65
2022/07/15 14:12:25;;;;;;;5.27;0.70;;;20.10;1.00;;;;;;8329962;28;20190;-67
2022/07/15 14:16:26;;;;;;;4.30;1.10;;;20.20;1.00;;;;;;8322706;28;20246;-66
2022/07/15 14:20:27;;;;;;;1.40;0.63;;;20.40;1.00;;;;;;8335254;28;20186;-67
2022/07/15 14:24:28;;;;;;;4.03;0.90;;;20.20;1.00;;;;;;8324257;28;20199;-66
2022/07/15 14:28:29;;;;;;;2.97;1.00;;;19.90;1.00;;;;;;8306484;28;20194;-66
2022/07/15 14:32:30;;;;;;;5.47;0.90;;;19.80;1.00;;;;;;8312183;28;20190;-64
2022/07/15 14:36:30;;;;;;;3.60;0.60;;;20.00;1.00;;;;;;8305877;28;20229;-68
2022/07/15 14:40:31;;;;;;;2.40;0.60;;;20.30;1.00;;;;;;8340789;28;20217;-65
2022/07/15 14:44:32;;;;;;;1.87;0.40;;;20.30;1.00;;;;;;8303067;28;20178;-65
2022/07/15 14:48:33;;;;;;;2.10;0.63;;;20.10;1.00;;;;;;8302236;28;20612;-68
2022/07/15 14:52:34;;;;;;;4.40;1.13;;;19.80;1.00;;;;;;8322211;28;20238;-65
2022/07/15 14:56:35;;;;;;;4.23;0.70;;;19.80;1.00;;;;;;8305010;28;20254;-65
2022/07/15 15:00:36;;;;;;;2.43;0.70;;;19.70;1.00;;;;;;8309602;28;20186;-66
2022/07/15 15:04:37;;;;;;;2.63;0.70;;;19.60;1.00;;;;;;8315226;28;20296;-66
2022/07/15 15:08:38;;;;;;;5.00;0.70;;;19.60;1.00;;;;;;8316265;28;20204;-66
2022/07/15 15:12:39;;;;;;;3.87;0.50;;;19.80;1.00;;;;;;8315582;28;20194;-67
2022/07/15 15:16:40;;;;;;;4.97;1.00;;;20.00;1.00;;;;;;8316386;28;20217;-67
2022/07/15 15:20:41;;;;;;;2.77;0.87;;;20.40;1.00;;;;;;8309389;28;20358;-67
2022/07/15 15:24:42;;;;;;;2.77;0.53;;;20.20;1.00;;;;;;8315732;28;20182;-66
2022/07/15 15:28:43;;;;;;;2.70;0.50;;;20.00;1.00;;;;;;8317295;28;20183;-65
2022/07/15 15:32:44;;;;;;;2.03;0.70;;;20.10;1.00;;;;;;8340891;28;20221;-66
2022/07/15 15:36:45;;;;;;;2.43;0.70;;;20.10;1.00;;;;;;8310496;28;20222;-66
2022/07/15 15:40:46;;;;;;;3.87;0.70;;;20.00;1.00;;;;;;8314593;28;20226;-66
2022/07/15 15:44:47;;;;;;;2.40;0.67;;;20.10;1.00;;;;;;8322469;28;20704;-66
2022/07/15 15:48:48;;;;;;;3.30;0.67;;;20.30;1.00;;;;;;8314247;28;20191;-68
2022/07/15 15:52:49;;;;;;;3.73;0.77;;;20.30;1.00;;;;;;8314091;28;20221;-66
2022/07/15 15:56:50;;;;;;;2.47;0.77;;;20.30;1.00;;;;;;8338475;28;20258;-65
2022/07/15 16:00:51;;;;;;;3.10;0.80;;;20.10;1.00;;;;;;8322524;28;20183;-64
2022/07/15 16:04:52;;;;;;;3.07;0.53;;;20.20;1.00;;;;;;8316713;28;20198;-68
2022/07/15 16:08:53;;;;;;;1.93;0.53;;;20.00;1.00;;;;;;8310969;28;20213;-66
2022/07/15 16:12:54;;;;;;;3.23;0.73;;;19.70;1.00;;;;;;8309594;28;20186;-65
2022/07/15 16:16:55;;;;;;;1.97;0.50;;;19.50;1.00;;;;;;8301133;28;20255;-66
2022/07/15 16:20:56;;;;;;;2.43;0.53;;;19.70;1.00;;;;;;8311083;28;20205;-65
2022/07/15 16:24:57;;;;;;;3.30;0.57;;;19.70;1.00;;;;;;8343954;28;20189;-65
2022/07/15 16:28:58;;;;;;;2.00;0.50;;;19.70;1.00;;;;;;8317505;28;20186;-66
2022/07/15 16:33:00;;;;;;;4.20;1.00;;;19.80;1.00;;;;;;8311341;28;20189;-65
2022/07/15 16:37:01;;;;;;;1.90;0.60;;;20.00;1.00;;;;;;8339291;28;20206;-65
2022/07/15 16:41:03;;;;;;;1.90;0.40;;;20.10;1.00;;;;;;8309693;28;20269;-66
2022/07/15 16:45:04;;;;;;;2.37;0.67;;;20.20;1.00;;;;;;8304907;28;20180;-65
2022/07/15 16:49:05;;;;;;;3.13;0.60;;;20.10;1.00;;;;;;8333486;28;20216;-65
2022/07/15 16:53:05;;;;;;;2.43;0.70;;;20.00;1.00;;;;;;8308066;28;20207;-66
2022/07/15 16:57:06;;;;;;;2.87;0.60;;;19.80;1.00;;;;;;8314907;28;20368;-68
2022/07/15 17:01:07;;;;;;;5.10;0.90;;;19.80;1.00;;;;;;8345985;28;20181;-67
2022/07/15 17:05:09;;;;;;;3.37;0.60;;;19.90;1.00;;;;;;8312224;28;20272;-68
2022/07/15 17:09:10;;;;;;;1.27;0.50;;;19.60;1.00;;;;;;8309546;28;20307;-65
2022/07/15 17:13:12;;;;;;;3.37;0.80;;;19.60;1.00;;;;;;8317121;28;20244;-65
2022/07/15 17:17:12;;;;;;;2.13;0.50;;;19.50;1.00;;;;;;8343336;28;20279;-66
2022/07/15 17:21:13;;;;;;;2.63;0.70;;;19.50;1.00;;;;;;8313357;28;20185;-66
2022/07/15 17:25:14;;;;;;;3.40;0.70;;;19.60;1.00;;;;;;8312420;28;20187;-65
2022/07/15 17:29:15;;;;;;;3.50;0.57;;;19.80;1.00;;;;;;8312660;28;20191;-66
2022/07/15 17:33:19;;;;;;;2.27;0.33;;;19.80;1.00;;;;;;8306208;28;20221;-65
2022/07/15 17:37:20;;;;;;;1.00;0.40;;;19.50;1.00;;;;;;8313070;28;20198;-65
2022/07/15 17:41:21;;;;;;;1.33;0.40;;;19.30;1.00;;;;;;8310454;28;20195;-66
2022/07/15 17:45:22;;;;;;;3.67;0.63;;;20.00;1.00;;;;;;8346937;28;20278;-67
2022/07/15 17:49:23;;;;;;;2.53;0.47;;;20.60;1.00;;;;;;8314823;28;20198;-67
2022/07/15 17:53:25;;;;;;;1.73;0.70;;;20.40;1.00;;;;;;8314507;28;20243;-67
2022/07/15 17:57:26;;;;;;;3.47;0.90;;;20.00;1.00;;;;;;8316060;28;20214;-65
2022/07/15 18:01:26;;;;;;;1.90;0.60;;;20.10;1.00;;;;;;8315199;28;20192;-66
2022/07/15 18:05:27;;;;;;;1.50;0.60;;;20.10;1.00;;;;;;8316531;28;20202;-68
2022/07/15 18:09:28;;;;;;;4.07;0.90;;;20.30;1.00;;;;;;8343454;28;20206;-66
2022/07/15 18:13:29;;;;;;;2.40;0.57;;;20.50;1.00;;;;;;8342929;28;20205;-65
2022/07/15 18:17:31;;;;;;;1.73;0.70;;;20.80;1.00;;;;;;8310120;28;20314;-66
2022/07/15 18:21:32;;;;;;;1.90;0.60;;;20.70;1.00;;;;;;8306851;28;20183;-66
2022/07/15 18:25:33;;;;;;;1.60;0.70;;;20.50;1.00;;;;;;8325795;28;20198;-66
2022/07/15 18:29:34;;;;;;;2.97;0.73;;;20.30;1.00;;;;;;8315644;28;20190;-65
2022/07/15 18:33:35;;;;;;;1.80;0.60;;;20.00;1.00;;;;;;8326349;28;20262;-65
2022/07/15 18:37:37;;;;;;;1.13;0.63;;;19.70;1.00;;;;;;8322472;28;20260;-66
2022/07/15 18:41:38;;;;;;;4.87;0.60;;;19.60;1.00;;;;;;8316469;28;20197;-65
2022/07/15 18:45:39;;;;;;;2.57;0.40;;;19.40;1.00;;;;;;8316909;28;20187;-68
2022/07/15 18:49:39;;;;;;;2.07;0.50;;;19.00;1.00;;;;;;8354233;28;20262;-65
2022/07/15 18:53:40;;;;;;;2.20;0.50;;;18.40;1.00;;;;;;8318867;28;20289;-66
2022/07/15 18:57:41;;;;;;;3.93;0.63;;;17.90;1.00;;;;;;8330524;28;20273;-77
2022/07/15 19:01:45;;;;;;;2.97;0.70;;;17.40;1.00;;;;;;8320364;28;20187;-67
2022/07/15 19:05:46;;;;;;;1.63;0.53;;;17.10;1.00;;;;;;8312252;28;20246;-68
2022/07/15 19:09:48;;;;;;;1.20;0.33;;;16.80;1.00;;;;;;8346512;28;20190;-67
2022/07/15 19:13:49;;;;;;;1.90;0.40;;;16.50;1.00;;;;;;8312644;28;20598;-68
2022/07/15 19:17:49;;;;;;;2.67;0.70;;;16.20;1.00;;;;;;8336392;28;20214;-68
2022/07/15 19:21:50;;;;;;;1.43;0.50;;;15.90;1.00;;;;;;8304670;28;20194;-67
2022/07/15 19:25:51;;;;;;;3.10;0.70;;;15.60;1.00;;;;;;8308120;28;20201;-67
2022/07/15 19:29:52;;;;;;;0.90;0.50;;;15.20;1.00;;;;;;8317074;28;20245;-66
2022/07/15 19:33:53;;;;;;;0.60;0.40;;;14.90;1.00;;;;;;8309640;28;20214;-68
2022/07/15 19:37:54;;;;;;;2.50;0.70;;;14.60;1.00;;;;;;8300807;28;20222;-64
2022/07/15 19:41:58;;;;;;;1.43;0.50;;;14.40;1.00;;;;;;8301334;28;20191;-63
2022/07/15 19:45:59;;;;;;;0.90;0.43;;;14.20;1.00;;;;;;8333267;28;20317;-64
2022/07/15 19:50:00;;;;;;;1.93;0.60;;;14.00;1.00;;;;;;8301830;28;20273;-63
2022/07/15 19:54:01;;;;;;;1.87;0.60;;;13.70;1.00;;;;;;8314449;28;20218;-64
2022/07/15 19:58:03;;;;;;;1.43;0.47;;;13.50;1.00;;;;;;8332408;28;20219;-64
2022/07/15 20:52:13;;;;;;;1.00;0.60;;;11.50;99.90;;;;;;8325853;28;20234;-65
2022/07/15 20:56:14;;;;;;;1.63;0.60;;;11.40;99.90;;;;;;8325414;28;20244;-64
2022/07/15 21:00:15;;;;;;;0.93;0.60;;;11.30;99.90;;;;;;8339800;28;20264;-67
2022/07/15 21:04:17;;;;;;;1.73;0.60;;;11.10;99.90;;;;;;8331949;28;20189;-64
2022/07/15 21:08:18;;;;;;;0.90;0.50;;;11.10;99.90;;;;;;8331780;28;20266;-64
2022/07/15 21:12:19;;;;;;;2.20;0.50;;;11.00;99.90;;;;;;8319243;28;20182;-66
2022/07/15 21:16:20;;;;;;;3.83;0.70;;;10.90;99.90;;;;;;8333004;28;20190;-65
2022/07/15 21:20:21;;;;;;;1.53;0.90;;;10.80;99.90;;;;;;8310899;28;20179;-64
2022/07/15 21:28:41;;;;;;;1.33;0.70;;;10.70;99.90;;;;;;8331228;28;20276;-65
2022/07/15 21:32:42;;;;;;;0.90;0.40;;;10.60;99.90;;;;;;8316837;28;20185;-64
2022/07/15 21:36:43;;;;;;;0.90;0.70;;;10.50;99.90;;;;;;8323334;28;20702;-65
2022/07/15 21:40:44;;;;;;;2.07;1.00;;;10.40;99.90;;;;;;8334629;28;20209;-63
2022/07/15 21:44:45;;;;;;;1.67;0.93;;;10.30;99.90;;;;;;8319417;28;20493;-64
2022/07/15 21:48:46;;;;;;;1.73;0.97;;;10.30;99.90;;;;;;8321972;28;20187;-64
2022/07/15 21:52:47;;;;;;;0.90;0.77;;;10.30;99.90;;;;;;8321701;28;20280;-65
2022/07/15 21:56:48;;;;;;;1.50;0.90;;;10.20;99.90;;;;;;8332576;28;20224;-64
2022/07/15 22:00:49;;;;;;;3.83;0.80;;;10.30;99.90;;;;;;8324092;28;20328;-63
2022/07/15 22:04:51;;;;;;;4.47;1.07;;;10.30;99.90;;;;;;8318160;28;20183;-64
2022/07/15 22:08:52;;;;;;;1.80;1.00;;;10.50;99.90;;;;;;8334686;28;20182;-63
2022/07/15 22:12:53;;;;;;;3.53;0.90;;;10.60;99.90;;;;;;8359679;28;20223;-64